Time;durP1;ratioP1;P1;durP2;ratioP2;P2;SDS_P1;SDS_P2;PMS_P1;PMS_P2;Temp;Humidity;BMP_temperature;BMP_pressure;BME280_temperature;BME280_humidity;BME280_pressure;Samples;Min_cycle;Max_cycle;Signal;HPM_P1;HPM_P2
2022/09/20 04:01:50;;;;;;;3.80;1.05;;;7.90;99.90;;;;;;5524512;23;20303;-70
2022/09/20 04:04:27;;;;;;;0.77;0.77;;;7.80;99.90;;;;;;4989380;28;20276;-70
2022/09/20 04:07:11;;;;;;;6.82;2.13;;;7.80;99.90;;;;;;4972890;28;20225;-70
2022/09/20 04:09:56;;;;;;;6.70;1.63;;;7.80;99.90;;;;;;4988845;28;21175;-70
2022/09/20 04:12:30;;;;;;;2.15;0.90;;;7.80;99.90;;;;;;4983932;28;20225;-70
2022/09/20 04:15:07;;;;;;;25.73;2.78;;;7.80;99.90;;;;;;4980917;28;20239;-70
2022/09/20 04:17:47;;;;;;;1.70;1.60;;;7.80;99.90;;;;;;4986298;28;20232;-70
2022/09/20 04:20:20;;;;;;;5.05;2.42;;;7.80;99.90;;;;;;4980333;28;20237;-70
2022/09/20 04:22:50;;;;;;;5.57;2.58;;;7.90;99.90;;;;;;4982102;28;20728;-70
2022/09/20 04:25:21;;;;;;;2.03;1.50;;;7.90;99.90;;;;;;4987641;28;20284;-70
2022/09/20 04:27:54;;;;;;;5.22;2.75;;;7.90;99.90;;;;;;4983489;28;20213;-70
2022/09/20 04:30:25;;;;;;;3.42;3.13;;;8.00;99.90;;;;;;4982186;28;20217;-70
2022/09/20 04:32:59;;;;;;;5.78;2.75;;;8.00;99.90;;;;;;4984943;28;20300;-70
2022/09/20 04:38:23;;;;;;;5.18;2.10;;;8.00;99.90;;;;;;4976481;28;20316;-70
2022/09/20 04:41:11;;;;;;;2.97;2.88;;;8.00;99.90;;;;;;4976023;28;20233;-70
2022/09/20 04:44:27;;;;;;;6.68;3.53;;;8.00;99.90;;;;;;4980226;28;20281;-69
2022/09/20 04:47:19;;;;;;;7.18;5.22;;;8.00;99.90;;;;;;4942346;29;20258;-69
2022/09/20 04:50:22;;;;;;;9.27;5.13;;;8.00;99.90;;;;;;4987956;28;20228;-69
2022/09/20 04:53:27;;;;;;;11.38;4.40;;;8.10;99.90;;;;;;4974637;28;20244;-69
2022/09/20 04:55:55;;;;;;;3.10;2.90;;;8.00;99.90;;;;;;4989268;28;20220;-69
2022/09/20 04:58:37;;;;;;;4.78;3.45;;;8.00;99.90;;;;;;4986012;28;20682;-69
2022/09/20 05:01:57;;;;;;;3.92;3.65;;;8.00;99.90;;;;;;4980045;28;20238;-69
2022/09/20 05:05:13;;;;;;;3.35;2.75;;;8.00;99.90;;;;;;4974125;28;20300;-69
2022/09/20 05:08:31;;;;;;;4.07;3.65;;;8.10;99.90;;;;;;4988288;28;20201;-69
2022/09/20 05:11:26;;;;;;;2.03;1.80;;;8.10;99.90;;;;;;4957987;28;20233;-69
2022/09/20 05:14:23;;;;;;;2.30;2.20;;;8.00;99.90;;;;;;4979167;28;20244;-68
2022/09/20 05:17:09;;;;;;;2.08;1.88;;;8.00;99.90;;;;;;4987287;28;20252;-69
2022/09/20 05:19:47;;;;;;;4.25;4.05;;;8.00;99.90;;;;;;4987438;28;20214;-68
2022/09/20 05:22:47;;;;;;;4.63;2.83;;;8.10;99.90;;;;;;4986948;28;20229;-69
2022/09/20 05:25:50;;;;;;;4.25;3.95;;;8.00;99.90;;;;;;4989512;28;20209;-69
2022/09/20 05:28:25;;;;;;;8.63;2.63;;;8.10;99.90;;;;;;4980687;28;20241;-69
2022/09/20 05:30:57;;;;;;;7.32;4.35;;;8.10;99.90;;;;;;4989446;28;20300;-69
2022/09/20 05:33:30;;;;;;;2.42;2.33;;;8.10;99.90;;;;;;4981142;28;20209;-69
2022/09/20 05:36:05;;;;;;;7.70;3.20;;;8.10;99.90;;;;;;4981576;28;20216;-69
2022/09/20 05:38:47;;;;;;;3.72;3.40;;;8.10;99.90;;;;;;4989370;28;20268;-69
2022/09/20 05:41:22;;;;;;;3.47;2.88;;;8.10;99.90;;;;;;4986942;28;20229;-69
2022/09/20 05:43:57;;;;;;;1.45;1.40;;;8.10;99.90;;;;;;4981196;28;20213;-69
2022/09/20 05:46:35;;;;;;;3.05;2.85;;;8.20;99.90;;;;;;4982652;28;20205;-69
2022/09/20 05:49:11;;;;;;;3.75;3.40;;;8.20;99.90;;;;;;4985940;28;20209;-69
2022/09/20 05:51:53;;;;;;;3.85;2.70;;;8.20;99.90;;;;;;4985717;28;20317;-70
2022/09/20 05:54:44;;;;;;;6.88;2.42;;;8.20;99.90;;;;;;4985187;28;20209;-69
2022/09/20 05:57:20;;;;;;;3.63;2.95;;;8.20;99.90;;;;;;4989334;28;20225;-70
2022/09/20 06:00:00;;;;;;;6.25;2.97;;;8.20;99.90;;;;;;4988110;28;20218;-69
2022/09/20 06:02:39;;;;;;;3.17;2.80;;;8.30;99.90;;;;;;4975603;28;20557;-70
2022/09/20 06:05:13;;;;;;;4.72;4.50;;;8.30;99.90;;;;;;4982206;28;20214;-70
2022/09/20 06:08:02;;;;;;;4.63;2.35;;;8.30;99.90;;;;;;4983217;28;20517;-70
2022/09/20 06:10:47;;;;;;;3.72;2.80;;;8.30;99.90;;;;;;4976076;28;20667;-69
2022/09/20 06:13:35;;;;;;;4.40;3.30;;;8.40;99.90;;;;;;4985625;28;20210;-69
2022/09/20 06:16:05;;;;;;;11.07;3.10;;;8.50;99.90;;;;;;4988240;28;20213;-70
2022/09/20 06:18:36;;;;;;;2.28;2.08;;;8.50;99.90;;;;;;4984062;28;20234;-70
2022/09/20 06:21:16;;;;;;;2.83;2.38;;;8.60;99.90;;;;;;4982215;28;20709;-70
2022/09/20 06:23:43;;;;;;;3.17;2.90;;;8.60;99.90;;;;;;4985588;28;20733;-70
2022/09/20 06:26:16;;;;;;;3.80;2.58;;;8.60;99.90;;;;;;4981453;28;20224;-70
2022/09/20 06:28:47;;;;;;;6.03;3.40;;;8.70;99.90;;;;;;4982484;28;20706;-69
2022/09/20 06:31:16;;;;;;;1.83;1.70;;;8.80;99.90;;;;;;4981190;28;20344;-70
2022/09/20 06:33:49;;;;;;;2.05;1.92;;;8.80;99.90;;;;;;4975502;28;20241;-69
2022/09/20 06:42:00;;;;;;;5.05;2.05;;;9.00;99.90;;;;;;4985212;28;20271;-70
2022/09/20 06:44:27;;;;;;;2.80;2.60;;;9.00;99.90;;;;;;4976341;28;20659;-70
2022/09/20 06:46:55;;;;;;;2.85;2.63;;;9.10;99.90;;;;;;4976129;28;20206;-70
2022/09/20 06:49:22;;;;;;;1.45;1.38;;;9.10;99.90;;;;;;4979505;28;20206;-70
2022/09/20 06:51:50;;;;;;;4.05;1.88;;;9.10;99.90;;;;;;4977563;28;20728;-70
2022/09/20 06:54:18;;;;;;;2.60;2.10;;;9.20;99.90;;;;;;4983741;28;20240;-70
2022/09/20 06:56:46;;;;;;;1.35;1.00;;;9.20;99.90;;;;;;4985481;28;20221;-70
2022/09/20 06:59:14;;;;;;;2.75;2.67;;;9.30;99.90;;;;;;4974122;28;20301;-70
2022/09/20 07:01:41;;;;;;;1.98;1.35;;;9.30;99.90;;;;;;4972318;28;20230;-70
2022/09/20 07:04:09;;;;;;;1.85;1.65;;;9.40;99.90;;;;;;4985349;28;20213;-70
2022/09/20 07:06:36;;;;;;;2.25;2.15;;;9.40;99.90;;;;;;4973937;28;20223;-70
2022/09/20 07:09:04;;;;;;;7.47;2.42;;;9.50;99.90;;;;;;4986395;28;20537;-70
2022/09/20 07:11:31;;;;;;;2.67;2.35;;;9.50;99.90;;;;;;4982478;28;20233;-70
2022/09/20 07:13:58;;;;;;;17.00;4.80;;;9.60;99.90;;;;;;4991307;28;20241;-70
2022/09/20 07:16:25;;;;;;;2.42;2.22;;;9.60;99.90;;;;;;4991110;28;20212;-70
2022/09/20 07:18:52;;;;;;;9.95;2.45;;;9.60;99.90;;;;;;4986681;28;20702;-70
2022/09/20 07:21:21;;;;;;;2.70;2.50;;;9.70;99.90;;;;;;4988761;28;20234;-70
2022/09/20 07:23:50;;;;;;;4.03;2.30;;;9.70;99.90;;;;;;4980720;28;20215;-70
2022/09/20 07:26:20;;;;;;;2.72;2.53;;;9.80;99.90;;;;;;4985090;28;20318;-70
2022/09/20 07:28:47;;;;;;;7.20;3.75;;;9.90;99.90;;;;;;4981262;28;20232;-68
2022/09/20 07:31:14;;;;;;;3.22;1.52;;;9.90;99.90;;;;;;4981149;28;20226;-70
2022/09/20 07:33:40;;;;;;;4.35;2.28;;;10.00;99.90;;;;;;4988164;28;20267;-70
2022/09/20 07:36:07;;;;;;;10.23;4.18;;;10.00;99.90;;;;;;4983402;28;20211;-70
2022/09/20 07:38:36;;;;;;;5.38;3.50;;;10.00;99.90;;;;;;4986814;28;20231;-70
2022/09/20 07:41:03;;;;;;;5.85;2.22;;;10.10;99.90;;;;;;4988433;28;20230;-70
2022/09/20 07:43:31;;;;;;;3.97;3.53;;;10.20;99.90;;;;;;4988256;28;20215;-70
2022/09/20 07:45:58;;;;;;;2.25;1.88;;;10.20;99.90;;;;;;4984652;28;20303;-70
2022/09/20 07:48:27;;;;;;;1.95;1.80;;;10.30;99.90;;;;;;4986918;28;20221;-70
2022/09/20 07:50:55;;;;;;;2.03;1.92;;;10.30;99.90;;;;;;4985764;28;20231;-70
2022/09/20 07:53:23;;;;;;;2.88;2.20;;;10.40;99.90;;;;;;4976459;28;20216;-70
2022/09/20 07:55:58;;;;;;;5.68;1.52;;;10.50;99.90;;;;;;4986873;28;20262;-70
2022/09/20 07:58:25;;;;;;;3.50;2.13;;;10.50;99.90;;;;;;4989043;28;20230;-70
2022/09/20 08:00:53;;;;;;;1.77;1.30;;;10.60;99.90;;;;;;4985686;28;20317;-70
2022/09/20 08:03:21;;;;;;;1.08;1.05;;;10.70;99.90;;;;;;4985875;28;20219;-70
2022/09/20 08:05:48;;;;;;;1.63;1.52;;;10.70;99.90;;;;;;4978458;28;20596;-70
2022/09/20 08:08:16;;;;;;;1.33;0.90;;;10.80;99.90;;;;;;4988507;28;20601;-69
2022/09/20 08:10:43;;;;;;;1.02;1.02;;;10.80;99.90;;;;;;4987885;28;20223;-71
2022/09/20 08:13:12;;;;;;;2.00;1.90;;;10.90;99.90;;;;;;4978149;28;20213;-70
2022/09/20 08:15:39;;;;;;;8.95;2.97;;;11.00;99.90;;;;;;4985757;28;20210;-70
2022/09/20 08:18:07;;;;;;;4.38;1.40;;;11.00;99.90;;;;;;4982655;28;20237;-70
2022/09/20 08:20:36;;;;;;;1.90;1.10;;;11.10;99.90;;;;;;4983428;28;20234;-71
2022/09/20 08:23:03;;;;;;;6.63;1.25;;;11.20;99.90;;;;;;4991014;28;20214;-71
2022/09/20 08:25:30;;;;;;;5.55;1.52;;;11.30;99.90;;;;;;4983875;28;20230;-70
2022/09/20 08:27:56;;;;;;;2.83;1.67;;;11.30;99.90;;;;;;4983591;28;20195;-71
2022/09/20 08:30:25;;;;;;;1.95;1.85;;;11.40;99.90;;;;;;4979103;28;20594;-71
2022/09/20 08:32:54;;;;;;;1.27;1.15;;;11.40;99.90;;;;;;4983282;28;20220;-71
2022/09/20 08:35:24;;;;;;;9.70;1.55;;;11.50;99.90;;;;;;4974812;28;20238;-71
2022/09/20 08:37:53;;;;;;;3.05;1.50;;;11.60;99.90;;;;;;4984033;28;20248;-71
2022/09/20 08:40:22;;;;;;;1.50;1.38;;;11.70;99.90;;;;;;4989172;28;20207;-71
2022/09/20 08:42:53;;;;;;;5.35;1.50;;;11.70;99.90;;;;;;4987234;28;20576;-70
2022/09/20 08:45:22;;;;;;;0.90;0.90;;;11.70;99.90;;;;;;4986676;28;20216;-71
2022/09/20 08:47:54;;;;;;;3.50;0.95;;;11.80;99.90;;;;;;4984753;28;20212;-71
2022/09/20 08:50:21;;;;;;;4.13;0.90;;;11.80;99.90;;;;;;4980691;28;20205;-70
2022/09/20 08:52:50;;;;;;;13.40;1.00;;;11.90;99.90;;;;;;4975113;28;20237;-70
2022/09/20 08:55:18;;;;;;;6.63;0.98;;;11.90;99.90;;;;;;4997115;28;20211;-70
2022/09/20 08:57:49;;;;;;;1.77;0.82;;;12.00;99.90;;;;;;4994461;28;20384;-70
2022/09/20 09:00:18;;;;;;;3.53;1.08;;;12.00;99.90;;;;;;5005152;28;20216;-70
2022/09/20 09:02:45;;;;;;;2.70;1.33;;;12.10;99.90;;;;;;5006897;28;20211;-69
2022/09/20 09:05:31;;;;;;;4.65;1.20;;;12.20;99.90;;;;;;4997392;28;20210;-69
2022/09/20 09:07:59;;;;;;;0.60;0.60;;;12.20;99.90;;;;;;4993771;28;20208;-70
2022/09/20 09:10:28;;;;;;;1.17;1.17;;;12.30;99.90;;;;;;5008539;28;20223;-69
2022/09/20 09:12:56;;;;;;;0.70;0.70;;;12.30;99.90;;;;;;5005702;28;20193;-69
2022/09/20 09:15:28;;;;;;;2.75;0.98;;;12.30;99.90;;;;;;4996671;28;20194;-69
2022/09/20 09:17:55;;;;;;;5.07;0.85;;;12.40;99.90;;;;;;4993943;28;20216;-70
2022/09/20 09:20:24;;;;;;;3.30;0.40;;;12.50;99.90;;;;;;4994329;28;20210;-70
2022/09/20 09:23:00;;;;;;;9.20;1.15;;;12.60;99.90;;;;;;4990792;28;20274;-70
2022/09/20 09:25:31;;;;;;;0.85;0.57;;;12.60;99.90;;;;;;4986419;28;20211;-70
2022/09/20 09:27:59;;;;;;;10.82;0.80;;;12.60;99.90;;;;;;4971360;28;20304;-70
2022/09/20 09:30:28;;;;;;;5.45;1.15;;;12.70;99.90;;;;;;4981114;28;20209;-70
2022/09/20 09:33:26;;;;;;;0.65;0.65;;;12.80;99.90;;;;;;4981196;28;20211;-71
2022/09/20 09:35:57;;;;;;;0.95;0.77;;;12.90;99.90;;;;;;4977987;28;20686;-70
2022/09/20 09:38:26;;;;;;;0.32;0.32;;;12.90;99.90;;;;;;4980701;28;21710;-72
2022/09/20 09:40:55;;;;;;;1.75;0.43;;;13.00;99.90;;;;;;4987993;28;20232;-69
2022/09/20 09:43:26;;;;;;;0.93;0.90;;;13.00;99.90;;;;;;4982384;28;20220;-70
2022/09/20 09:45:54;;;;;;;0.47;0.30;;;13.00;99.90;;;;;;4988676;28;20666;-70
2022/09/20 09:48:23;;;;;;;2.15;0.85;;;13.10;99.90;;;;;;4987152;28;20378;-70
2022/09/20 09:50:50;;;;;;;1.70;0.53;;;13.20;99.90;;;;;;4980108;28;20690;-71
2022/09/20 09:53:22;;;;;;;2.58;0.65;;;13.20;99.90;;;;;;4980771;28;20480;-70
2022/09/20 09:56:18;;;;;;;0.87;0.40;;;13.30;99.90;;;;;;4986650;28;20206;-70
2022/09/20 09:58:58;;;;;;;4.57;0.80;;;13.30;99.90;;;;;;4982974;28;20503;-70
2022/09/20 10:01:34;;;;;;;1.10;1.10;;;13.30;99.90;;;;;;4982561;28;20496;-71
2022/09/20 10:04:10;;;;;;;2.40;0.90;;;13.30;99.90;;;;;;4981774;28;20295;-70
2022/09/20 10:06:46;;;;;;;1.20;0.95;;;13.40;99.90;;;;;;4982815;28;20481;-71
2022/09/20 10:09:36;;;;;;;0.70;0.70;;;13.40;99.90;;;;;;4982671;28;20198;-70
2022/09/20 10:12:24;;;;;;;0.70;0.70;;;13.50;99.90;;;;;;4980038;28;20238;-71
2022/09/20 10:15:05;;;;;;;1.13;1.13;;;13.50;99.90;;;;;;4976592;28;20217;-71
2022/09/20 10:17:42;;;;;;;0.70;0.70;;;13.60;99.90;;;;;;4983365;28;20573;-70
2022/09/20 10:20:26;;;;;;;1.40;1.30;;;13.70;99.90;;;;;;4983800;28;20542;-70
2022/09/20 10:23:08;;;;;;;0.57;0.57;;;13.80;99.90;;;;;;4989748;28;20461;-70
2022/09/20 10:25:42;;;;;;;0.47;0.43;;;13.80;99.90;;;;;;4982261;28;20477;-70
2022/09/20 10:28:21;;;;;;;0.67;0.67;;;13.90;99.90;;;;;;4986764;28;20463;-70
2022/09/20 10:31:00;;;;;;;0.90;0.90;;;14.00;99.90;;;;;;4982938;28;20501;-70
2022/09/20 10:33:33;;;;;;;0.47;0.47;;;14.00;99.90;;;;;;4980661;28;20504;-70
2022/09/20 10:36:19;;;;;;;4.30;0.83;;;14.10;99.90;;;;;;4988642;28;20835;-70
2022/09/20 10:38:54;;;;;;;2.87;1.30;;;14.10;99.90;;;;;;4977742;28;20493;-70
2022/09/20 10:44:45;;;;;;;1.60;1.03;;;14.20;99.90;;;;;;4974472;28;21013;-70
2022/09/20 10:47:15;;;;;;;2.75;0.55;;;14.30;99.90;;;;;;4988379;28;20472;-70
2022/09/20 10:49:46;;;;;;;7.40;0.57;;;14.40;99.90;;;;;;4991113;28;20245;-70
2022/09/20 10:52:34;;;;;;;1.10;1.10;;;14.50;99.90;;;;;;4977654;28;20491;-69
2022/09/20 10:55:24;;;;;;;1.70;1.60;;;14.60;99.90;;;;;;4980053;28;20962;-70
2022/09/20 10:58:29;;;;;;;0.50;0.50;;;14.40;99.90;;;;;;4981588;28;20460;-70
2022/09/20 11:01:01;;;;;;;1.47;0.40;;;14.30;99.90;;;;;;4985871;28;20493;-70
2022/09/20 11:03:46;;;;;;;3.80;0.93;;;14.30;99.90;;;;;;4990199;28;20563;-70
2022/09/20 11:06:20;;;;;;;0.60;0.60;;;14.40;99.90;;;;;;4981122;28;20473;-70
2022/09/20 11:08:53;;;;;;;2.10;0.50;;;14.50;99.90;;;;;;4982148;28;20932;-71
2022/09/20 11:11:23;;;;;;;0.83;0.83;;;14.50;99.90;;;;;;4979802;28;20486;-70
2022/09/20 11:13:59;;;;;;;2.50;0.43;;;14.50;99.90;;;;;;4993098;28;20965;-70
2022/09/20 11:16:33;;;;;;;0.40;0.40;;;14.40;99.90;;;;;;4984113;28;20495;-70
2022/09/20 11:19:04;;;;;;;2.10;0.60;;;14.50;99.90;;;;;;4991228;28;20488;-70
2022/09/20 11:21:37;;;;;;;1.47;0.60;;;14.60;99.90;;;;;;4993227;28;20500;-69
2022/09/20 11:24:14;;;;;;;0.60;0.57;;;14.70;99.90;;;;;;4992283;28;20474;-70
2022/09/20 11:26:47;;;;;;;3.97;0.40;;;14.80;99.90;;;;;;4985092;28;20476;-70
2022/09/20 11:29:22;;;;;;;0.40;0.40;;;14.70;99.90;;;;;;4992693;28;20829;-69
2022/09/20 11:31:55;;;;;;;0.33;0.33;;;14.60;99.90;;;;;;4991813;28;20468;-70
2022/09/20 11:34:28;;;;;;;1.27;0.87;;;14.50;99.90;;;;;;4984683;28;20463;-70
2022/09/20 11:36:57;;;;;;;0.30;0.30;;;14.50;99.90;;;;;;4991471;28;20464;-69
2022/09/20 11:39:29;;;;;;;8.93;1.03;;;14.50;99.90;;;;;;4973174;28;20491;-70
2022/09/20 11:41:59;;;;;;;0.57;0.53;;;14.50;99.90;;;;;;4974109;28;20486;-69
2022/09/20 11:44:27;;;;;;;2.33;0.80;;;14.50;99.90;;;;;;4987111;28;21030;-70
2022/09/20 11:46:59;;;;;;;1.20;0.50;;;14.60;99.90;;;;;;4991538;28;20553;-70
2022/09/20 11:49:29;;;;;;;0.87;0.30;;;14.60;99.90;;;;;;4987973;28;20466;-70
2022/09/20 11:52:27;;;;;;;0.57;0.30;;;14.70;99.90;;;;;;4987862;28;20471;-70
2022/09/20 11:55:16;;;;;;;0.30;0.30;;;14.80;99.90;;;;;;4985360;28;20473;-70
2022/09/20 11:57:42;;;;;;;0.37;0.37;;;14.70;99.90;;;;;;4989510;28;20502;-70
2022/09/20 12:00:12;;;;;;;0.40;0.40;;;14.70;99.90;;;;;;4982928;28;21074;-70
2022/09/20 12:02:47;;;;;;;0.40;0.40;;;14.60;99.90;;;;;;4984801;28;21359;-70
2022/09/20 12:05:27;;;;;;;2.03;0.30;;;14.70;99.90;;;;;;4975588;28;20461;-70
2022/09/20 12:07:57;;;;;;;0.87;0.50;;;14.70;99.90;;;;;;4975529;28;20474;-71
2022/09/20 12:10:26;;;;;;;0.30;0.30;;;14.70;99.90;;;;;;4982609;28;20461;-71
2022/09/20 12:12:59;;;;;;;1.13;0.20;;;14.80;99.90;;;;;;4989799;28;20466;-70
2022/09/20 12:15:30;;;;;;;5.70;0.67;;;14.90;99.90;;;;;;4987684;28;20991;-69
2022/09/20 12:18:27;;;;;;;0.50;0.50;;;15.00;99.90;;;;;;4975993;28;20485;-69
2022/09/20 12:21:02;;;;;;;0.60;0.60;;;15.10;99.90;;;;;;4980690;28;20556;-69
2022/09/20 12:24:16;;;;;;;2.17;0.30;;;15.20;99.90;;;;;;4984623;28;20835;-69
2022/09/20 12:26:48;;;;;;;0.30;0.30;;;15.20;99.90;;;;;;4972141;28;20480;-69
2022/09/20 12:29:51;;;;;;;0.80;0.80;;;15.30;99.90;;;;;;4981430;28;20467;-70
2022/09/20 12:32:44;;;;;;;1.07;0.63;;;15.50;99.90;;;;;;4974588;28;20491;-69
2022/09/20 12:35:59;;;;;;;5.00;0.40;;;15.50;99.90;;;;;;4991334;28;20480;-69
2022/09/20 12:38:57;;;;;;;0.50;0.50;;;15.60;99.90;;;;;;4974270;28;20471;-70
2022/09/20 12:41:24;;;;;;;1.67;1.57;;;15.80;99.90;;;;;;4981277;28;20489;-70
2022/09/20 12:44:03;;;;;;;0.50;0.30;;;15.90;99.90;;;;;;4991272;28;20456;-70
2022/09/20 12:46:35;;;;;;;0.50;0.40;;;16.10;99.90;;;;;;4988141;28;20468;-70
2022/09/20 12:55:51;;;;;;;8.67;0.67;;;16.50;99.90;;;;;;4991555;28;20447;-69
2022/09/20 12:58:28;;;;;;;0.43;0.43;;;16.40;99.90;;;;;;4980288;28;20527;-70
2022/09/20 13:01:33;;;;;;;0.40;0.40;;;16.20;99.90;;;;;;4989556;28;20491;-70
2022/09/20 13:04:37;;;;;;;0.30;0.30;;;15.90;99.90;;;;;;4981063;28;20464;-70
2022/09/20 13:07:36;;;;;;;0.30;0.30;;;15.60;99.90;;;;;;4984914;28;20473;-68
2022/09/20 13:10:16;;;;;;;0.40;0.30;;;15.50;99.90;;;;;;4983535;28;20531;-70
2022/09/20 13:12:44;;;;;;;4.70;0.57;;;15.50;99.90;;;;;;4974164;28;20517;-69
2022/09/20 13:15:17;;;;;;;0.23;0.23;;;15.50;99.90;;;;;;4996245;28;20470;-70
2022/09/20 13:17:44;;;;;;;0.40;0.40;;;15.50;99.90;;;;;;4984917;28;21073;-69
2022/09/20 13:20:18;;;;;;;0.63;0.63;;;15.50;99.90;;;;;;4996952;28;20568;-70
2022/09/20 13:22:48;;;;;;;0.40;0.40;;;15.50;99.90;;;;;;4978204;28;20682;-70
2022/09/20 13:25:19;;;;;;;0.50;0.30;;;15.60;99.90;;;;;;4985720;28;20496;-70
2022/09/20 13:27:50;;;;;;;3.67;0.70;;;15.60;99.90;;;;;;4983756;28;20458;-70
2022/09/20 13:30:19;;;;;;;3.13;0.73;;;15.70;99.90;;;;;;4981933;28;20537;-69
2022/09/20 13:32:46;;;;;;;1.27;0.33;;;15.70;99.90;;;;;;4991852;28;20468;-70
2022/09/20 13:35:15;;;;;;;0.40;0.40;;;15.70;99.90;;;;;;4990303;28;20950;-70
2022/09/20 13:37:52;;;;;;;0.20;0.20;;;15.70;99.90;;;;;;4971977;28;20498;-70
2022/09/20 13:40:21;;;;;;;0.80;0.40;;;15.80;99.90;;;;;;4978895;28;20496;-69
2022/09/20 13:42:49;;;;;;;0.30;0.30;;;15.80;99.90;;;;;;4981282;28;20942;-70
2022/09/20 13:45:18;;;;;;;0.30;0.30;;;15.80;99.90;;;;;;4988813;28;20497;-70
2022/09/20 13:47:49;;;;;;;0.40;0.40;;;15.80;99.90;;;;;;4979165;28;20473;-69
2022/09/20 13:50:21;;;;;;;2.30;0.50;;;15.80;99.90;;;;;;4988112;28;22104;-69
2022/09/20 13:52:51;;;;;;;2.20;0.77;;;15.90;99.90;;;;;;4980490;28;20470;-70
2022/09/20 13:55:32;;;;;;;0.37;0.37;;;15.90;99.90;;;;;;4988682;28;20481;-71
2022/09/20 13:58:02;;;;;;;0.30;0.30;;;15.90;99.90;;;;;;4975813;28;20456;-70
2022/09/20 14:00:31;;;;;;;0.20;0.20;;;16.00;99.90;;;;;;4983335;28;20793;-69
2022/09/20 14:02:58;;;;;;;0.93;0.30;;;16.00;99.90;;;;;;4981758;28;20473;-69
2022/09/20 14:05:28;;;;;;;0.40;0.40;;;16.00;99.90;;;;;;4973555;28;20472;-68
2022/09/20 14:07:58;;;;;;;0.47;0.47;;;15.90;99.90;;;;;;4987639;28;20472;-69
2022/09/20 14:10:33;;;;;;;0.50;0.50;;;15.80;99.90;;;;;;4990504;28;20500;-69
2022/09/20 14:13:01;;;;;;;0.50;0.50;;;15.60;99.90;;;;;;4979590;28;20481;-69
2022/09/20 14:15:34;;;;;;;0.40;0.40;;;15.50;99.90;;;;;;4973107;28;20466;-69
2022/09/20 14:18:03;;;;;;;0.30;0.30;;;15.40;99.90;;;;;;4975593;28;20482;-69
2022/09/20 14:20:31;;;;;;;0.57;0.57;;;15.30;99.90;;;;;;4986572;28;20513;-68
2022/09/20 14:22:59;;;;;;;0.50;0.50;;;15.20;99.90;;;;;;4983886;28;21005;-69
2022/09/20 14:25:27;;;;;;;0.30;0.30;;;15.30;99.90;;;;;;4979450;28;20474;-71
2022/09/20 14:28:17;;;;;;;0.30;0.30;;;15.30;99.90;;;;;;4983954;28;20545;-70
2022/09/20 14:30:46;;;;;;;4.07;0.60;;;15.40;99.90;;;;;;4979002;28;20482;-70
2022/09/20 14:33:16;;;;;;;0.50;0.50;;;15.50;99.90;;;;;;4979524;28;20994;-70
2022/09/20 14:35:48;;;;;;;1.30;0.33;;;15.50;99.90;;;;;;4982016;28;20465;-70
2022/09/20 14:38:19;;;;;;;5.10;0.70;;;15.60;99.90;;;;;;4982293;28;20477;-70
2022/09/20 14:40:47;;;;;;;0.40;0.40;;;15.60;99.90;;;;;;4976980;28;20498;-70
2022/09/20 14:43:25;;;;;;;1.40;0.90;;;15.70;99.90;;;;;;4981708;28;20469;-69
2022/09/20 14:45:54;;;;;;;1.60;0.23;;;15.70;99.90;;;;;;4987346;28;20820;-69
2022/09/20 14:48:33;;;;;;;0.20;0.20;;;15.70;99.90;;;;;;4997617;28;20527;-69
2022/09/20 14:51:20;;;;;;;0.80;0.70;;;15.70;99.90;;;;;;4998082;28;20487;-71
2022/09/20 14:53:50;;;;;;;0.53;0.53;;;15.70;99.90;;;;;;4993883;28;20470;-69
2022/09/20 14:56:27;;;;;;;0.30;0.30;;;15.60;99.90;;;;;;4996487;28;20467;-69
2022/09/20 14:59:05;;;;;;;3.10;0.40;;;15.60;99.90;;;;;;4983270;28;20473;-69
2022/09/20 15:01:33;;;;;;;0.30;0.30;;;15.60;99.90;;;;;;4995328;28;20490;-69
2022/09/20 15:04:07;;;;;;;5.40;0.90;;;15.60;99.90;;;;;;4985796;28;20461;-68
2022/09/20 15:06:35;;;;;;;0.50;0.50;;;15.60;99.90;;;;;;4999850;28;20472;-68
2022/09/20 15:09:03;;;;;;;0.30;0.30;;;15.60;99.90;;;;;;5002878;28;20554;-69
2022/09/20 15:11:30;;;;;;;0.77;0.33;;;15.60;99.90;;;;;;4987772;28;21012;-70
2022/09/20 15:13:56;;;;;;;2.20;0.20;;;15.60;99.90;;;;;;4986965;28;20478;-70
2022/09/20 15:16:23;;;;;;;0.40;0.40;;;15.60;99.90;;;;;;4986315;28;20478;-70
2022/09/20 15:18:50;;;;;;;3.70;0.70;;;15.60;99.90;;;;;;4979203;28;20480;-69
2022/09/20 15:21:17;;;;;;;0.30;0.30;;;15.60;99.90;;;;;;4973232;28;20498;-71
2022/09/20 15:23:43;;;;;;;0.53;0.20;;;15.60;99.90;;;;;;4982021;28;20480;-69
2022/09/20 15:26:13;;;;;;;0.87;0.60;;;15.60;99.90;;;;;;4982006;28;20544;-71
2022/09/20 15:28:41;;;;;;;0.30;0.30;;;15.60;99.90;;;;;;4984024;28;20479;-71
2022/09/20 15:31:07;;;;;;;1.80;0.83;;;15.60;99.90;;;;;;4982665;28;20586;-69
2022/09/20 15:33:34;;;;;;;0.77;0.20;;;15.60;99.90;;;;;;4984980;28;21892;-70
2022/09/20 15:36:04;;;;;;;0.63;0.37;;;15.60;99.90;;;;;;4986120;28;20467;-71
2022/09/20 15:38:32;;;;;;;0.20;0.20;;;15.50;99.90;;;;;;4988284;28;20486;-70
2022/09/20 15:41:02;;;;;;;0.43;0.40;;;15.50;99.90;;;;;;4987788;28;20981;-70
2022/09/20 15:43:30;;;;;;;1.13;0.43;;;15.50;99.90;;;;;;4991443;28;21001;-72
2022/09/20 15:46:00;;;;;;;0.30;0.30;;;15.50;99.90;;;;;;4980584;28;20461;-71
2022/09/20 15:48:28;;;;;;;0.23;0.23;;;15.40;99.90;;;;;;4986885;28;20962;-71
2022/09/20 15:51:04;;;;;;;3.43;0.50;;;15.40;99.90;;;;;;4992094;28;20476;-71
2022/09/20 15:53:33;;;;;;;0.27;0.20;;;15.40;99.90;;;;;;4992111;28;20483;-72
2022/09/20 15:56:01;;;;;;;0.37;0.37;;;15.40;99.90;;;;;;4990402;28;20475;-71
2022/09/20 15:58:31;;;;;;;4.07;0.50;;;15.40;99.90;;;;;;4983815;28;20496;-72
2022/09/20 16:01:04;;;;;;;0.30;0.30;;;15.30;99.90;;;;;;4989085;28;20505;-71
2022/09/20 16:03:30;;;;;;;3.20;0.67;;;15.30;99.90;;;;;;4986923;28;20474;-71
2022/09/20 16:05:59;;;;;;;1.77;0.50;;;15.30;99.90;;;;;;4985753;28;20554;-71
2022/09/20 16:08:26;;;;;;;1.27;0.80;;;15.30;99.90;;;;;;4972704;28;20557;-72
2022/09/20 16:10:57;;;;;;;1.70;0.97;;;15.30;99.90;;;;;;4983777;28;20820;-72
2022/09/20 16:13:23;;;;;;;0.40;0.40;;;15.20;99.90;;;;;;4981600;28;20463;-72
2022/09/20 16:15:55;;;;;;;0.50;0.50;;;15.20;99.90;;;;;;4991969;28;21133;-72
2022/09/20 16:21:08;;;;;;;0.70;0.70;;;15.10;99.90;;;;;;4985677;28;20541;-71
2022/09/20 16:23:36;;;;;;;3.40;1.33;;;15.10;99.90;;;;;;4984334;28;20489;-71
2022/09/20 16:26:02;;;;;;;6.20;5.40;;;15.00;99.90;;;;;;4984612;28;20569;-71
2022/09/20 16:28:29;;;;;;;8.93;6.50;;;15.00;99.90;;;;;;4979739;28;20473;-70
2022/09/20 16:30:58;;;;;;;6.03;5.37;;;14.90;99.90;;;;;;4992101;28;20488;-70
2022/09/20 16:33:25;;;;;;;5.30;3.77;;;14.90;99.90;;;;;;4989570;28;20469;-70
2022/09/20 16:35:52;;;;;;;1.50;1.50;;;14.80;99.90;;;;;;4991616;28;20499;-71
2022/09/20 16:38:19;;;;;;;0.90;0.90;;;14.80;99.90;;;;;;4983598;28;20471;-70
2022/09/20 16:40:48;;;;;;;1.37;0.60;;;14.70;99.90;;;;;;4979106;28;20493;-71
2022/09/20 16:43:24;;;;;;;0.30;0.30;;;14.70;99.90;;;;;;4983398;28;20540;-70
2022/09/20 16:46:00;;;;;;;0.60;0.30;;;14.60;99.90;;;;;;4984089;28;20476;-71
2022/09/20 16:48:30;;;;;;;3.60;0.60;;;14.60;99.90;;;;;;4989301;28;20544;-71
2022/09/20 16:50:58;;;;;;;0.20;0.20;;;14.50;99.90;;;;;;4985141;28;20661;-71
2022/09/20 16:53:27;;;;;;;0.40;0.40;;;14.40;99.90;;;;;;4979443;28;20531;-70
2022/09/20 16:55:55;;;;;;;0.40;0.40;;;14.30;99.90;;;;;;4983439;28;20469;-71
2022/09/20 16:58:27;;;;;;;0.30;0.30;;;14.20;99.90;;;;;;4987383;28;20482;-70
2022/09/20 17:00:54;;;;;;;0.37;0.37;;;14.10;99.90;;;;;;4983965;28;20488;-70
2022/09/20 17:03:25;;;;;;;0.53;0.53;;;14.00;99.90;;;;;;4983766;28;20604;-71
2022/09/20 17:05:52;;;;;;;0.77;0.77;;;13.90;99.90;;;;;;4984442;28;20883;-71
2022/09/20 17:08:19;;;;;;;0.60;0.60;;;13.80;99.90;;;;;;4976897;28;20894;-70
2022/09/20 17:10:47;;;;;;;2.33;0.90;;;13.70;99.90;;;;;;4989905;28;20582;-70
2022/09/20 17:13:14;;;;;;;1.10;1.10;;;13.70;99.90;;;;;;4984773;28;20470;-71
2022/09/20 17:15:42;;;;;;;1.63;1.53;;;13.60;99.90;;;;;;4990839;28;20481;-70
2022/09/20 17:18:08;;;;;;;1.30;1.30;;;13.40;99.90;;;;;;4978385;28;20465;-70
2022/09/20 17:20:38;;;;;;;3.97;1.47;;;13.40;99.90;;;;;;4981186;28;20598;-70
2022/09/20 17:23:07;;;;;;;2.67;1.20;;;13.30;99.90;;;;;;4984585;28;20472;-70
2022/09/20 17:25:34;;;;;;;3.70;1.40;;;13.20;99.90;;;;;;4985128;28;20481;-70
2022/09/20 17:28:01;;;;;;;1.63;1.63;;;13.10;99.90;;;;;;4982571;28;20531;-70
2022/09/20 17:30:29;;;;;;;2.03;1.93;;;13.00;99.90;;;;;;4990623;28;20461;-69
2022/09/20 17:32:55;;;;;;;2.08;1.98;;;12.90;99.90;;;;;;4979562;28;20500;-70
2022/09/20 17:35:22;;;;;;;2.00;1.95;;;12.80;99.90;;;;;;4988207;28;20236;-70
2022/09/20 17:37:50;;;;;;;2.05;1.95;;;12.80;99.90;;;;;;4989479;28;20212;-70
2022/09/20 17:40:17;;;;;;;2.83;2.55;;;12.70;99.90;;;;;;4978883;28;20213;-69
2022/09/20 17:42:44;;;;;;;3.42;3.13;;;12.60;99.90;;;;;;4985875;28;20219;-70
2022/09/20 17:45:11;;;;;;;9.52;5.20;;;12.50;99.90;;;;;;4981016;28;20214;-70